createdAt,value
2018-12-06T00:00:07.190Z,0
2018-12-06T00:00:59.217Z,0
2018-12-06T00:01:52.082Z,0
2018-12-06T00:02:44.915Z,0
2018-12-06T00:03:37.172Z,0
2018-12-06T00:04:29.708Z,0
2018-12-06T00:05:22.154Z,0
2018-12-06T00:06:14.544Z,0
2018-12-06T00:07:07.063Z,0
2018-12-06T00:07:59.640Z,0
2018-12-06T00:08:52.060Z,0
2018-12-06T00:09:44.509Z,0
2018-12-06T00:10:36.926Z,0
2018-12-06T00:11:29.018Z,0
2018-12-06T00:12:22.126Z,0
2018-12-06T00:13:14.026Z,0
2018-12-06T00:14:06.626Z,0
2018-12-06T00:14:59.187Z,0
2018-12-06T00:15:51.660Z,0
2018-12-06T00:16:44.087Z,0
2018-12-06T00:17:37.093Z,0
2018-12-06T00:18:30.358Z,0
2018-12-06T00:19:22.385Z,0
2018-12-06T00:20:14.501Z,0
2018-12-06T00:21:06.104Z,0
2018-12-06T00:21:59.611Z,0
2018-12-06T00:22:51.798Z,0
2018-12-06T00:23:43.830Z,0
2018-12-06T00:24:27.683Z,0
2018-12-06T00:25:08.084Z,0
2018-12-06T00:25:48.660Z,0
2018-12-06T00:26:29.211Z,0
2018-12-06T00:27:09.614Z,0
2018-12-06T00:27:50.104Z,0
2018-12-06T00:28:30.983Z,0
2018-12-06T00:29:12.379Z,0
2018-12-06T00:29:53.351Z,0
2018-12-06T00:30:34.241Z,0
2018-12-06T00:31:14.718Z,0
2018-12-06T00:31:55.368Z,0
2018-12-06T00:32:35.875Z,0
2018-12-06T00:33:16.311Z,0
2018-12-06T00:33:56.781Z,0
2018-12-06T00:34:37.528Z,0
2018-12-06T00:35:18.017Z,0
2018-12-06T00:35:58.281Z,0
2018-12-06T00:36:38.707Z,0
2018-12-06T00:37:19.594Z,0
2018-12-06T00:37:59.931Z,0
2018-12-06T00:38:40.554Z,0
2018-12-06T00:39:21.429Z,0
2018-12-06T00:40:02.623Z,0
2018-12-06T00:40:43.195Z,0
2018-12-06T00:41:23.695Z,0
2018-12-06T00:42:04.323Z,0
2018-12-06T00:42:44.784Z,0
2018-12-06T00:43:25.506Z,0
2018-12-06T00:44:05.995Z,0
2018-12-06T00:44:46.395Z,0
2018-12-06T00:45:26.926Z,0
2018-12-06T00:46:07.736Z,0
2018-12-06T00:46:48.296Z,0
2018-12-06T00:47:29.408Z,0
2018-12-06T00:48:10.015Z,0
2018-12-06T00:48:50.342Z,0
2018-12-06T00:49:31.039Z,0
2018-12-06T00:50:11.595Z,0
2018-12-06T00:50:52.206Z,0
2018-12-06T00:51:32.528Z,0
2018-12-06T00:52:13.141Z,0
2018-12-06T00:52:54.390Z,0
2018-12-06T00:53:35.692Z,0
2018-12-06T00:54:18.381Z,0
2018-12-06T00:54:59.469Z,0
2018-12-06T00:55:41.115Z,0
2018-12-06T00:56:23.915Z,0
2018-12-06T00:57:04.551Z,0
2018-12-06T00:57:45.877Z,0
2018-12-06T00:58:26.775Z,0
2018-12-06T00:59:08.096Z,0
2018-12-06T00:59:50.192Z,0
2018-12-06T01:00:31.403Z,0
2018-12-06T01:01:11.892Z,0
2018-12-06T01:01:53.426Z,0
2018-12-06T01:02:34.967Z,0
2018-12-06T01:03:16.023Z,0
2018-12-06T01:03:57.317Z,0
2018-12-06T01:06:34.610Z,0
2018-12-06T01:07:15.004Z,0
2018-12-06T01:07:55.407Z,0
2018-12-06T01:08:35.822Z,0
2018-12-06T01:09:16.222Z,0
2018-12-06T01:09:57.339Z,0
2018-12-06T01:10:37.718Z,0
2018-12-06T01:11:18.141Z,0
2018-12-06T01:11:58.547Z,0
2018-12-06T01:12:38.886Z,0
2018-12-06T01:13:19.334Z,0
2018-12-06T01:13:59.693Z,0
2018-12-06T01:14:40.046Z,0
2018-12-06T01:15:20.433Z,0
2018-12-06T01:18:31.931Z,0
2018-12-06T01:19:25.177Z,0
2018-12-06T01:20:18.826Z,0
2018-12-06T01:21:12.959Z,0
2018-12-06T01:22:05.412Z,0
2018-12-06T01:22:57.589Z,0
2018-12-06T01:23:50.188Z,0
2018-12-06T01:24:42.718Z,0
2018-12-06T01:25:35.433Z,0
2018-12-06T01:26:29.100Z,0
2018-12-06T01:27:21.619Z,0
2018-12-06T01:28:14.440Z,0
2018-12-06T01:29:07.601Z,0
2018-12-06T01:30:02.077Z,0
2018-12-06T01:30:55.870Z,0
2018-12-06T01:31:47.925Z,0
2018-12-06T01:32:40.859Z,0
2018-12-06T01:33:36.641Z,0
2018-12-06T01:34:30.474Z,0
2018-12-06T01:35:24.398Z,0
2018-12-06T01:36:18.571Z,0
2018-12-06T01:37:11.996Z,0
2018-12-06T01:38:05.448Z,0
2018-12-06T01:38:59.124Z,0
2018-12-06T01:39:55.080Z,0
2018-12-06T01:40:47.611Z,0
2018-12-06T01:41:40.835Z,0
2018-12-06T01:42:32.936Z,0
2018-12-06T01:43:25.244Z,0
2018-12-06T01:44:20.515Z,0
2018-12-06T01:45:14.806Z,0
2018-12-06T01:46:06.923Z,0
2018-12-06T01:46:59.433Z,0
2018-12-06T01:47:51.747Z,0
2018-12-06T01:48:44.525Z,0
2018-12-06T01:49:37.311Z,0
2018-12-06T01:50:31.358Z,0
2018-12-06T01:51:23.624Z,0
2018-12-06T01:52:16.623Z,0
2018-12-06T01:53:08.834Z,0
2018-12-06T01:54:01.237Z,0
2018-12-06T01:54:55.744Z,0
2018-12-06T01:55:49.667Z,0
2018-12-06T01:56:44.156Z,0
2018-12-06T01:57:39.121Z,0
2018-12-06T01:58:33.523Z,0
2018-12-06T01:59:27.434Z,0
2018-12-06T02:00:20.322Z,0
2018-12-06T02:01:12.956Z,0
2018-12-06T02:02:05.541Z,0
2018-12-06T02:02:59.633Z,0
2018-12-06T02:03:52.061Z,0
2018-12-06T02:04:44.378Z,0
2018-12-06T02:05:36.947Z,0
2018-12-06T02:06:30.671Z,0
2018-12-06T02:07:24.507Z,0
2018-12-06T02:08:18.940Z,0
2018-12-06T02:09:14.031Z,0
2018-12-06T02:10:08.396Z,0
2018-12-06T02:11:00.948Z,0
2018-12-06T02:11:53.214Z,0
2018-12-06T02:12:45.147Z,0
2018-12-06T02:13:36.943Z,0
2018-12-06T02:14:29.457Z,0
2018-12-06T02:15:21.886Z,0
2018-12-06T02:16:14.958Z,0
2018-12-06T02:17:08.327Z,0
2018-12-06T02:18:00.513Z,0
2018-12-06T02:18:53.157Z,0
2018-12-06T02:19:46.050Z,0
2018-12-06T02:20:39.078Z,0
2018-12-06T02:21:33.720Z,0
2018-12-06T02:22:25.899Z,0
2018-12-06T02:23:19.435Z,0
2018-12-06T02:24:11.384Z,0
2018-12-06T02:25:03.298Z,0
2018-12-06T02:25:56.019Z,0
2018-12-06T02:26:50.045Z,0
2018-12-06T02:27:44.376Z,0
2018-12-06T02:28:38.572Z,0
2018-12-06T02:29:31.117Z,0
2018-12-06T02:30:24.744Z,0
2018-12-06T02:31:17.003Z,0
2018-12-06T02:32:10.580Z,0
2018-12-06T02:32:57.788Z,0
2018-12-06T02:33:39.754Z,0
2018-12-06T02:34:22.273Z,0
2018-12-06T02:35:06.380Z,0
2018-12-06T02:36:17.496Z,0
2018-12-06T02:38:36.376Z,0
2018-12-06T02:39:16.857Z,0
2018-12-06T02:39:57.305Z,0
2018-12-06T02:40:37.791Z,0
2018-12-06T02:41:18.111Z,0
2018-12-06T02:41:58.507Z,0
2018-12-06T02:44:33.467Z,0
2018-12-06T02:45:14.581Z,0
2018-12-06T02:45:54.965Z,0
2018-12-06T02:46:35.336Z,0
2018-12-06T02:47:15.732Z,0
2018-12-06T02:47:56.135Z,0
2018-12-06T02:48:36.520Z,0
2018-12-06T02:49:16.906Z,0
2018-12-06T02:49:57.292Z,0
2018-12-06T02:50:37.696Z,0
2018-12-06T02:51:18.084Z,0
2018-12-06T02:51:58.458Z,0
2018-12-06T02:52:38.865Z,0
2018-12-06T02:53:19.309Z,0
2018-12-06T03:02:33.278Z,0
2018-12-06T03:03:25.864Z,0
2018-12-06T03:04:18.345Z,0
2018-12-06T03:05:10.832Z,0
2018-12-06T03:06:04.541Z,0
2018-12-06T03:06:57.309Z,0
2018-12-06T03:07:49.865Z,0
2018-12-06T03:08:42.547Z,0
2018-12-06T03:09:34.846Z,0
2018-12-06T03:10:28.998Z,0
2018-12-06T03:11:21.323Z,0
2018-12-06T03:12:13.901Z,0
2018-12-06T03:13:06.359Z,0
2018-12-06T03:13:58.849Z,0
2018-12-06T03:14:51.447Z,0
2018-12-06T03:15:44.350Z,0
2018-12-06T03:16:36.847Z,0
2018-12-06T03:17:31.286Z,0
2018-12-06T03:18:25.087Z,0
2018-12-06T03:19:18.306Z,0
2018-12-06T03:20:10.629Z,0
2018-12-06T03:21:03.587Z,0
2018-12-06T03:21:56.999Z,0
2018-12-06T03:22:49.355Z,0
2018-12-06T03:23:41.681Z,0
2018-12-06T03:24:33.938Z,0
2018-12-06T03:25:26.353Z,0
2018-12-06T03:26:19.766Z,0
2018-12-06T03:27:11.803Z,0
2018-12-06T03:28:04.459Z,0
2018-12-06T03:28:56.844Z,0
2018-12-06T03:29:49.799Z,0
2018-12-06T03:30:42.311Z,0
2018-12-06T03:31:36.554Z,0
2018-12-06T03:32:28.796Z,0
2018-12-06T03:33:21.701Z,0
2018-12-06T03:34:14.361Z,0
2018-12-06T03:35:06.884Z,0
2018-12-06T03:36:00.077Z,0
2018-12-06T03:36:52.411Z,0
2018-12-06T03:37:44.986Z,0
2018-12-06T03:38:37.383Z,0
2018-12-06T03:39:29.936Z,0
2018-12-06T03:40:22.316Z,0
2018-12-06T03:41:14.756Z,0
2018-12-06T03:42:07.259Z,0
2018-12-06T03:42:59.874Z,0
2018-12-06T03:43:52.554Z,0
2018-12-06T03:44:45.406Z,0
2018-12-06T03:45:38.613Z,0
2018-12-06T03:46:30.941Z,0
2018-12-06T03:47:23.412Z,0
2018-12-06T03:48:15.961Z,0
2018-12-06T03:49:08.271Z,0
2018-12-06T03:50:00.816Z,0
2018-12-06T03:50:53.046Z,0
2018-12-06T03:51:45.224Z,0
2018-12-06T03:52:37.693Z,0
2018-12-06T03:53:29.895Z,0
2018-12-06T03:54:22.116Z,0
2018-12-06T03:55:14.409Z,0
2018-12-06T03:56:06.483Z,0
2018-12-06T03:56:58.709Z,0
2018-12-06T03:57:51.070Z,0
2018-12-06T03:58:43.446Z,0
2018-12-06T03:59:36.075Z,0
2018-12-06T04:00:29.016Z,0
2018-12-06T04:01:21.342Z,0
2018-12-06T04:02:14.393Z,0
2018-12-06T04:03:06.235Z,0
2018-12-06T04:03:58.885Z,0
2018-12-06T04:04:51.447Z,0
2018-12-06T04:05:43.700Z,0
2018-12-06T04:06:35.770Z,0
2018-12-06T04:07:28.475Z,0
2018-12-06T04:08:21.036Z,0
2018-12-06T04:09:13.054Z,0
2018-12-06T04:10:07.821Z,0
2018-12-06T04:11:00.798Z,0
2018-12-06T04:11:53.305Z,0
2018-12-06T04:12:45.506Z,0
2018-12-06T04:13:38.328Z,0
2018-12-06T04:14:32.561Z,0
2018-12-06T04:15:24.587Z,0
2018-12-06T04:16:17.849Z,0
2018-12-06T04:17:09.864Z,0
2018-12-06T04:18:02.566Z,0
2018-12-06T04:18:55.639Z,0
2018-12-06T04:19:48.478Z,0
2018-12-06T04:20:40.975Z,0
2018-12-06T04:21:34.414Z,0
2018-12-06T04:22:26.767Z,0
2018-12-06T04:23:19.899Z,0
2018-12-06T04:24:12.225Z,0
2018-12-06T04:25:04.308Z,0
2018-12-06T04:25:57.239Z,0
2018-12-06T04:26:50.309Z,0
2018-12-06T04:27:42.624Z,0
2018-12-06T04:28:35.550Z,0
2018-12-06T05:06:15.618Z,0
2018-12-06T05:06:55.856Z,0
2018-12-06T05:07:36.207Z,0
2018-12-06T05:08:16.637Z,0
2018-12-06T05:08:56.994Z,0
2018-12-06T05:09:37.484Z,0
2018-12-06T05:10:17.777Z,0
2018-12-06T05:10:58.343Z,0
2018-12-06T05:11:38.803Z,0
2018-12-06T05:12:19.117Z,0
2018-12-06T05:12:59.552Z,0
2018-12-06T05:13:39.935Z,0
2018-12-06T05:14:21.266Z,0
2018-12-06T05:15:00.693Z,0
2018-12-06T05:15:41.086Z,0
2018-12-06T05:16:21.435Z,0
2018-12-06T05:17:02.168Z,0
2018-12-06T05:17:42.549Z,0
2018-12-06T05:18:23.149Z,0
2018-12-06T05:19:03.641Z,0
2018-12-06T05:19:44.066Z,0
2018-12-06T05:20:24.565Z,0
2018-12-06T05:21:05.021Z,0
2018-12-06T05:21:45.421Z,0
2018-12-06T05:22:25.860Z,0
2018-12-06T05:23:06.213Z,0
2018-12-06T05:23:46.663Z,0
2018-12-06T05:24:27.071Z,0
2018-12-06T05:25:07.497Z,0
2018-12-06T05:25:47.863Z,0
2018-12-06T05:26:28.220Z,0
2018-12-06T05:28:45.417Z,0
2018-12-06T05:29:26.340Z,0
2018-12-06T05:30:08.405Z,0
2018-12-06T05:30:47.208Z,0
2018-12-06T05:31:27.576Z,0
2018-12-06T05:32:07.992Z,0
2018-12-06T05:32:48.365Z,0
2018-12-06T05:33:28.770Z,0
2018-12-06T05:34:09.151Z,0
2018-12-06T05:34:49.572Z,0
2018-12-06T05:35:29.976Z,0
2018-12-06T05:36:10.372Z,0
2018-12-06T05:36:50.830Z,0
2018-12-06T05:37:31.290Z,0
2018-12-06T05:38:11.696Z,0
2018-12-06T05:38:52.025Z,0
2018-12-06T05:39:32.482Z,0
2018-12-06T05:41:32.429Z,0
2018-12-06T05:42:12.486Z,0
2018-12-06T05:42:52.871Z,0
2018-12-06T05:43:33.267Z,0
2018-12-06T05:44:13.625Z,0
2018-12-06T05:44:54.028Z,0
2018-12-06T05:45:34.548Z,0
2018-12-06T05:46:15.031Z,0
2018-12-06T05:46:55.465Z,0
2018-12-06T05:47:35.864Z,0
2018-12-06T05:48:16.311Z,0
2018-12-06T05:48:56.937Z,0
2018-12-06T05:49:37.229Z,0
2018-12-06T05:50:17.723Z,0
2018-12-06T05:50:58.041Z,0
2018-12-06T05:51:38.423Z,0
2018-12-06T05:52:18.996Z,0
2018-12-06T05:52:59.361Z,0
2018-12-06T05:53:39.749Z,0
2018-12-06T05:54:20.146Z,0
2018-12-06T05:55:00.533Z,0
2018-12-06T05:55:41.027Z,0
2018-12-06T05:56:21.380Z,0
2018-12-06T05:57:01.772Z,0
2018-12-06T05:59:41.575Z,0
2018-12-06T06:00:34.737Z,0
2018-12-06T06:01:26.872Z,0
2018-12-06T06:02:19.585Z,0
2018-12-06T06:03:12.173Z,0
2018-12-06T06:04:04.160Z,0
2018-12-06T06:04:56.268Z,0
2018-12-06T06:05:49.474Z,0
2018-12-06T06:06:41.628Z,0
2018-12-06T06:07:33.624Z,0
2018-12-06T06:08:26.163Z,0
2018-12-06T06:09:21.569Z,0
2018-12-06T06:10:14.821Z,0
2018-12-06T06:11:07.048Z,0
2018-12-06T06:12:00.633Z,0
2018-12-06T06:12:53.025Z,0
2018-12-06T06:13:45.641Z,0
2018-12-06T06:14:37.730Z,0
2018-12-06T06:15:29.986Z,0
2018-12-06T06:16:21.859Z,0
2018-12-06T06:17:14.544Z,0
2018-12-06T06:18:06.919Z,0
2018-12-06T06:18:58.785Z,0
2018-12-06T06:20:06.790Z,0
2018-12-06T06:21:01.977Z,0
2018-12-06T06:21:53.637Z,0
2018-12-06T06:24:27.516Z,0
2018-12-06T06:25:19.848Z,0
2018-12-06T06:26:13.216Z,0
2018-12-06T06:27:07.335Z,0
2018-12-06T06:27:59.908Z,0
2018-12-06T06:28:52.201Z,0
2018-12-06T06:29:45.526Z,0
2018-12-06T06:33:24.086Z,0
2018-12-06T06:34:18.092Z,0
2018-12-06T06:35:09.947Z,0
2018-12-06T06:36:03.283Z,0
2018-12-06T06:36:55.487Z,0
2018-12-06T06:37:47.475Z,0
2018-12-06T06:38:39.558Z,0
2018-12-06T06:39:33.220Z,0
2018-12-06T06:42:10.163Z,0
2018-12-06T06:43:03.785Z,0
2018-12-06T06:43:56.162Z,0
2018-12-06T06:44:49.526Z,0
2018-12-06T06:45:41.957Z,0
2018-12-06T06:46:35.396Z,0
2018-12-06T06:47:31.151Z,0
2018-12-06T06:48:36.453Z,0
2018-12-06T06:49:44.579Z,0
2018-12-06T06:50:53.576Z,0
2018-12-06T06:53:48.732Z,0
2018-12-06T06:54:48.532Z,0
2018-12-06T06:56:02.242Z,0
2018-12-06T06:57:03.989Z,0
2018-12-06T06:58:11.951Z,0
2018-12-06T06:59:16.029Z,0
2018-12-06T07:00:15.014Z,0
2018-12-06T07:01:12.503Z,0
2018-12-06T07:02:17.411Z,0
2018-12-06T07:03:27.156Z,0
2018-12-06T07:04:37.848Z,4
2018-12-06T07:05:55.067Z,4
2018-12-06T07:07:21.520Z,4
2018-12-06T07:11:48.697Z,4
2018-12-06T07:12:29.026Z,4
2018-12-06T07:13:09.469Z,8
2018-12-06T07:13:50.351Z,4
2018-12-06T07:14:30.787Z,4
2018-12-06T07:15:12.174Z,8
2018-12-06T07:15:53.097Z,4
2018-12-06T07:16:33.641Z,8
2018-12-06T07:17:14.236Z,8
2018-12-06T07:17:54.655Z,8
2018-12-06T07:18:35.140Z,8
2018-12-06T07:19:15.599Z,8
2018-12-06T07:19:56.330Z,8
2018-12-06T07:20:36.788Z,12
2018-12-06T07:21:17.142Z,12
2018-12-06T07:21:57.683Z,8
2018-12-06T07:22:38.198Z,8
2018-12-06T07:23:18.656Z,12
2018-12-06T07:23:59.067Z,12
2018-12-06T07:24:39.741Z,12
2018-12-06T07:27:12.034Z,20
2018-12-06T07:27:52.453Z,16
2018-12-06T07:28:32.866Z,20
2018-12-06T07:29:13.648Z,20
2018-12-06T07:29:54.162Z,20
2018-12-06T07:30:34.676Z,20
2018-12-06T07:31:15.128Z,24
2018-12-06T07:31:55.735Z,24
2018-12-06T07:32:36.121Z,16
2018-12-06T07:33:16.698Z,20
2018-12-06T07:33:57.289Z,20
2018-12-06T07:34:37.762Z,20
2018-12-06T07:35:18.169Z,20
2018-12-06T07:35:58.760Z,20
2018-12-06T07:36:39.289Z,20
2018-12-06T07:37:19.882Z,20
2018-12-06T07:38:00.385Z,20
2018-12-06T07:38:40.975Z,20
2018-12-06T07:39:23.543Z,20
2018-12-06T07:40:03.781Z,20
2018-12-06T07:40:44.221Z,24
2018-12-06T07:41:25.286Z,20
2018-12-06T07:42:05.744Z,24
2018-12-06T07:48:03.106Z,36
2018-12-06T07:48:43.316Z,36
2018-12-06T07:49:24.082Z,32
2018-12-06T07:50:05.827Z,36
2018-12-06T07:50:46.764Z,36
2018-12-06T07:53:04.673Z,40
2018-12-06T07:53:45.103Z,40
2018-12-06T07:54:25.468Z,48
2018-12-06T07:55:05.935Z,48
2018-12-06T07:55:46.547Z,48
2018-12-06T07:56:27.073Z,40
2018-12-06T07:57:07.463Z,40
2018-12-06T07:57:48.041Z,40
2018-12-06T07:58:28.470Z,44
2018-12-06T07:59:09.668Z,52
2018-12-06T07:59:50.222Z,52
2018-12-06T08:00:30.458Z,56
2018-12-06T08:01:10.912Z,56
2018-12-06T08:01:51.693Z,56
2018-12-06T08:02:31.981Z,52
2018-12-06T08:03:12.529Z,56
2018-12-06T08:05:50.405Z,76
2018-12-06T08:07:54.447Z,72
2018-12-06T08:08:34.793Z,84
2018-12-06T08:09:15.588Z,84
2018-12-06T08:09:55.989Z,84
2018-12-06T08:10:36.571Z,92
2018-12-06T08:11:17.054Z,92
2018-12-06T08:11:57.465Z,76
2018-12-06T08:12:37.929Z,64
2018-12-06T08:13:18.378Z,60
2018-12-06T08:13:58.813Z,60
2018-12-06T08:14:39.224Z,68
2018-12-06T08:15:19.895Z,72
2018-12-06T08:16:00.397Z,72
2018-12-06T08:16:40.809Z,84
2018-12-06T08:17:21.340Z,88
2018-12-06T08:18:01.571Z,88
2018-12-06T08:18:42.115Z,92
2018-12-06T08:19:22.448Z,96
2018-12-06T08:20:02.926Z,100
2018-12-06T08:24:30.091Z,112
2018-12-06T08:25:10.272Z,116
2018-12-06T08:25:51.128Z,144
2018-12-06T08:26:31.415Z,156
2018-12-06T08:27:12.109Z,168
2018-12-06T08:27:52.648Z,152
2018-12-06T08:28:33.549Z,152
2018-12-06T08:29:13.806Z,164
2018-12-06T08:29:54.489Z,156
2018-12-06T08:30:34.891Z,180
2018-12-06T08:31:15.896Z,196
2018-12-06T08:31:57.107Z,188
2018-12-06T08:32:37.040Z,180
2018-12-06T08:33:17.466Z,188
2018-12-06T08:33:58.122Z,200
2018-12-06T08:34:38.573Z,192
2018-12-06T08:44:26.294Z,416
2018-12-06T08:45:27.359Z,432
2018-12-06T08:46:25.067Z,380
2018-12-06T08:47:20.652Z,320
2018-12-06T08:48:20.139Z,324
2018-12-06T08:51:24.073Z,352
2018-12-06T08:52:27.399Z,360
2018-12-06T08:53:25.923Z,372
2018-12-06T08:56:22.577Z,400
2018-12-06T08:57:04.740Z,396
2018-12-06T08:57:46.693Z,424
2018-12-06T08:58:27.442Z,408
2018-12-06T08:59:08.029Z,400
2018-12-06T08:59:49.738Z,380
2018-12-06T09:00:31.034Z,372
2018-12-06T09:01:11.661Z,380
2018-12-06T09:01:52.182Z,384
2018-12-06T09:02:32.630Z,400
2018-12-06T09:03:13.260Z,408
2018-12-06T09:03:53.788Z,412
2018-12-06T09:04:34.295Z,420
2018-12-06T09:05:14.799Z,420
2018-12-06T09:05:55.423Z,420
2018-12-06T09:06:36.158Z,420
2018-12-06T09:07:16.655Z,420
2018-12-06T09:07:57.155Z,428
2018-12-06T09:08:37.696Z,424
2018-12-06T09:09:18.316Z,436
2018-12-06T09:09:59.020Z,452
2018-12-06T09:10:40.691Z,464
2018-12-06T09:11:20.165Z,472
2018-12-06T09:12:00.663Z,476
2018-12-06T09:12:41.281Z,480
2018-12-06T09:13:22.469Z,488
2018-12-06T09:14:02.444Z,500
2018-12-06T09:14:42.998Z,520
2018-12-06T09:15:23.677Z,548
2018-12-06T09:16:04.170Z,576
2018-12-06T09:16:44.601Z,612
2018-12-06T09:17:25.163Z,660
2018-12-06T09:18:07.361Z,712
2018-12-06T09:18:47.858Z,776
2018-12-06T09:19:28.588Z,836
2018-12-06T09:20:09.783Z,888
2018-12-06T09:20:50.263Z,920
2018-12-06T09:21:30.938Z,944
2018-12-06T09:22:12.169Z,972
2018-12-06T09:22:52.531Z,1004
2018-12-06T09:23:33.017Z,1044
2018-12-06T09:24:13.515Z,1076
2018-12-06T09:24:54.593Z,1096
2018-12-06T09:25:35.079Z,1116
2018-12-06T09:26:15.948Z,1136
2018-12-06T09:26:58.855Z,1152
2018-12-06T09:27:37.495Z,1164
2018-12-06T09:32:51.258Z,1224
2018-12-06T09:33:39.871Z,1220
2018-12-06T09:34:20.407Z,1192
2018-12-06T09:35:01.784Z,1180
2018-12-06T09:35:42.679Z,1180
2018-12-06T09:38:09.406Z,1184
2018-12-06T09:39:04.035Z,1176
2018-12-06T09:40:02.489Z,1168
2018-12-06T09:40:56.559Z,1144
2018-12-06T09:43:38.626Z,1048
2018-12-06T09:44:37.906Z,1004
2018-12-06T09:45:41.381Z,912
2018-12-06T09:48:52.999Z,592
2018-12-06T09:49:47.788Z,604
2018-12-06T09:50:35.168Z,628
2018-12-06T09:53:24.271Z,476
2018-12-06T09:54:14.586Z,472
2018-12-06T09:54:55.095Z,432
2018-12-06T09:55:35.518Z,428
2018-12-06T09:56:15.836Z,436
2018-12-06T09:56:56.316Z,424
2018-12-06T09:57:43.762Z,408
2018-12-06T09:58:24.245Z,380
2018-12-06T09:59:05.470Z,376
2018-12-06T09:59:50.447Z,404
2018-12-06T10:00:32.415Z,436
2018-12-06T10:01:16.702Z,432
2018-12-06T10:01:58.998Z,440
2018-12-06T10:02:40.561Z,420
2018-12-06T10:03:24.300Z,420
2018-12-06T10:04:12.192Z,420
2018-12-06T10:04:53.232Z,432
2018-12-06T10:05:35.109Z,444
2018-12-06T10:06:18.016Z,428
2018-12-06T10:07:00.493Z,416
2018-12-06T10:07:42.514Z,436
2018-12-06T10:08:24.700Z,456
2018-12-06T10:09:18.358Z,476
2018-12-06T10:10:00.693Z,416
2018-12-06T10:10:41.411Z,420
2018-12-06T10:11:21.815Z,436
2018-12-06T10:12:04.112Z,508
2018-12-06T10:12:48.485Z,640
2018-12-06T10:13:28.389Z,732
2018-12-06T10:14:08.892Z,664
2018-12-06T10:14:49.941Z,700
2018-12-06T10:15:31.764Z,672
2018-12-06T10:16:15.510Z,672
2018-12-06T10:17:03.504Z,652
2018-12-06T10:17:47.110Z,672
2018-12-06T10:18:27.683Z,640
2018-12-06T10:19:08.889Z,636
2018-12-06T10:19:49.545Z,612
2018-12-06T10:20:30.532Z,616
2018-12-06T10:21:11.163Z,576
2018-12-06T10:21:57.044Z,628
2018-12-06T10:22:38.204Z,696
2018-12-06T10:23:19.992Z,772
2018-12-06T10:24:01.026Z,812
2018-12-06T10:24:44.178Z,828
2018-12-06T10:25:25.993Z,876
2018-12-06T10:26:10.311Z,944
2018-12-06T10:28:44.876Z,1108
2018-12-06T10:29:25.350Z,1088
2018-12-06T11:07:20.270Z,1076
2018-12-06T11:08:00.539Z,1100
2018-12-06T11:08:40.991Z,1124
2018-12-06T11:09:21.435Z,1148
2018-12-06T11:10:07.730Z,1176
2018-12-06T11:10:48.553Z,1212
2018-12-06T11:11:28.997Z,1208
2018-12-06T11:12:09.416Z,1232
2018-12-06T11:12:49.805Z,1228
2018-12-06T11:13:30.213Z,1236
2018-12-06T11:14:10.855Z,1236
2018-12-06T11:14:53.732Z,1188
2018-12-06T11:15:36.069Z,1184
2018-12-06T11:16:19.637Z,1228
2018-12-06T11:17:02.553Z,1236
2018-12-06T11:21:23.132Z,1348
2018-12-06T11:22:24.485Z,1344
2018-12-06T11:23:31.566Z,1316
2018-12-06T11:24:58.902Z,1208
2018-12-06T11:26:25.785Z,1132
2018-12-06T11:28:01.292Z,1096
2018-12-06T11:29:24.345Z,1104
2018-12-06T11:30:38.731Z,1116
2018-12-06T11:31:22.086Z,1148
2018-12-06T11:32:02.742Z,1164
2018-12-06T11:32:44.072Z,1188
2018-12-06T11:33:25.957Z,1200
2018-12-06T11:34:09.880Z,1180
2018-12-06T11:34:55.862Z,1176
2018-12-06T11:35:42.965Z,1172
2018-12-06T11:36:23.407Z,1120
2018-12-06T11:37:04.285Z,1040
2018-12-06T11:37:49.542Z,940
2018-12-06T11:38:33.583Z,860
2018-12-06T11:42:58.001Z,600
2018-12-06T11:45:15.491Z,400
2018-12-06T11:45:56.472Z,376
2018-12-06T11:46:38.073Z,432
2018-12-06T11:47:19.555Z,528
2018-12-06T11:48:00.745Z,632
2018-12-06T11:48:41.244Z,696
2018-12-06T11:49:24.784Z,692
2018-12-06T11:50:05.103Z,672
2018-12-06T11:50:46.712Z,652
2018-12-06T11:51:28.214Z,616
2018-12-06T11:52:09.196Z,604
2018-12-06T11:52:50.173Z,648
2018-12-06T11:53:30.983Z,676
2018-12-06T11:54:15.204Z,708
2018-12-06T11:54:55.776Z,708
2018-12-06T11:55:37.702Z,664
2018-12-06T11:56:20.258Z,636
2018-12-06T11:57:00.831Z,560
2018-12-06T11:57:42.564Z,524
2018-12-06T11:58:23.937Z,584
2018-12-06T11:59:14.731Z,584
2018-12-06T11:59:55.417Z,496
2018-12-06T12:00:36.376Z,456
2018-12-06T12:01:18.559Z,468
2018-12-06T12:02:10.075Z,476
2018-12-06T12:02:49.686Z,484
2018-12-06T12:05:35.788Z,512
2018-12-06T12:06:36.569Z,424
2018-12-06T12:09:26.304Z,416
2018-12-06T12:10:05.932Z,364
2018-12-06T12:10:46.304Z,352
2018-12-06T12:11:26.889Z,316
2018-12-06T12:12:07.457Z,304
2018-12-06T12:12:48.113Z,296
2018-12-06T12:13:28.559Z,292
2018-12-06T12:14:10.022Z,272
2018-12-06T12:14:50.976Z,248
2018-12-06T12:15:31.811Z,268
2018-12-06T12:16:12.258Z,256
2018-12-06T12:16:52.655Z,264
2018-12-06T12:17:36.328Z,288
2018-12-06T12:18:17.796Z,336
2018-12-06T12:18:57.549Z,348
2018-12-06T12:19:38.264Z,348
2018-12-06T12:20:21.464Z,352
2018-12-06T12:21:02.190Z,356
2018-12-06T12:21:42.727Z,340
2018-12-06T12:22:23.356Z,328
2018-12-06T12:23:03.854Z,320
2018-12-06T12:23:44.526Z,356
2018-12-06T12:24:24.952Z,372
2018-12-06T12:25:05.399Z,324
2018-12-06T12:25:47.927Z,320
2018-12-06T12:26:26.350Z,332
2018-12-06T12:27:07.136Z,332
2018-12-06T12:27:47.718Z,348
2018-12-06T12:28:28.120Z,360
2018-12-06T12:29:10.391Z,388
2018-12-06T12:29:51.299Z,424
2018-12-06T12:30:35.117Z,408
2018-12-06T12:31:16.257Z,412
2018-12-06T12:31:56.728Z,376
2018-12-06T12:32:37.255Z,348
2018-12-06T12:33:18.028Z,332
2018-12-06T12:33:58.733Z,328
2018-12-06T12:34:45.767Z,336
2018-12-06T12:35:29.356Z,348
2018-12-06T12:36:17.557Z,332
2018-12-06T12:36:58.994Z,332
2018-12-06T12:37:40.094Z,356
2018-12-06T12:38:21.792Z,348
2018-12-06T12:39:01.616Z,340
2018-12-06T12:39:42.034Z,348
2018-12-06T12:40:23.336Z,340
2018-12-06T12:41:05.632Z,324
2018-12-06T12:41:46.002Z,316
2018-12-06T12:42:26.448Z,312
2018-12-06T12:43:06.885Z,300
2018-12-06T12:43:47.360Z,272
2018-12-06T12:44:27.756Z,268
2018-12-06T12:45:08.132Z,252
2018-12-06T12:45:48.635Z,252
2018-12-06T12:46:29.208Z,288
2018-12-06T12:47:09.657Z,296
2018-12-06T12:49:44.485Z,316
2018-12-06T12:50:42.997Z,340
2018-12-06T12:51:46.549Z,328
2018-12-06T12:52:54.047Z,300
2018-12-06T12:56:07.259Z,280
2018-12-06T12:57:03.032Z,276
2018-12-06T12:57:58.603Z,272
2018-12-06T12:58:56.019Z,280
2018-12-06T12:59:51.008Z,288
2018-12-06T13:00:46.799Z,280
2018-12-06T13:01:43.348Z,300
2018-12-06T13:02:38.113Z,336
2018-12-06T13:03:38.655Z,332
2018-12-06T13:04:34.996Z,320
2018-12-06T13:05:37.238Z,316
2018-12-06T13:06:39.272Z,324
2018-12-06T13:07:40.599Z,328
2018-12-06T13:08:41.771Z,300
2018-12-06T13:09:44.717Z,288
2018-12-06T13:12:23.278Z,264
2018-12-06T13:13:25.811Z,284
2018-12-06T13:14:20.792Z,308
2018-12-06T13:15:33.171Z,328
2018-12-06T13:16:33.436Z,304
2018-12-06T13:17:32.295Z,292
2018-12-06T13:18:29.770Z,300
2018-12-06T13:19:27.340Z,324
2018-12-06T13:22:52.719Z,360
2018-12-06T13:23:48.622Z,364
2018-12-06T13:24:52.283Z,372
2018-12-06T13:25:46.926Z,360
2018-12-06T13:26:43.739Z,352
2018-12-06T13:27:39.394Z,356
2018-12-06T13:28:35.768Z,364
2018-12-06T13:29:36.097Z,380
2018-12-06T13:30:36.710Z,416
2018-12-06T13:33:10.523Z,464
2018-12-06T13:34:08.528Z,464
2018-12-06T13:35:05.924Z,480
2018-12-06T13:36:07.479Z,508
2018-12-06T13:37:03.616Z,528
2018-12-06T13:38:01.707Z,528
2018-12-06T13:38:58.879Z,492
2018-12-06T13:39:56.551Z,460
2018-12-06T13:40:55.264Z,452
2018-12-06T13:42:00.729Z,432
2018-12-06T13:43:03.206Z,412
2018-12-06T13:44:03.882Z,412
2018-12-06T13:45:01.782Z,424
2018-12-06T13:46:03.155Z,428
2018-12-06T13:47:00.662Z,412
2018-12-06T13:48:00.126Z,396
2018-12-06T13:48:58.927Z,372
2018-12-06T13:49:59.536Z,372
2018-12-06T13:50:54.575Z,388
2018-12-06T13:52:01.751Z,416
2018-12-06T13:55:04.884Z,436
2018-12-06T13:56:00.836Z,440
2018-12-06T13:57:03.030Z,444
2018-12-06T13:57:57.630Z,440
2018-12-06T13:58:53.029Z,432
2018-12-06T13:59:47.081Z,428
2018-12-06T14:00:40.716Z,428
2018-12-06T14:01:33.149Z,428
2018-12-06T14:02:29.963Z,404
2018-12-06T14:03:28.172Z,360
2018-12-06T14:04:22.865Z,336
2018-12-06T14:05:24.233Z,304
2018-12-06T14:06:25.706Z,280
2018-12-06T14:07:25.458Z,260
2018-12-06T14:08:21.703Z,256
2018-12-06T14:09:30.736Z,256
2018-12-06T14:12:15.215Z,236
2018-12-06T14:13:31.006Z,232
2018-12-06T14:14:36.989Z,236
2018-12-06T14:15:40.500Z,236